createdAt,value
2023-01-12T00:03:07.236Z,9.8
2023-01-12T00:08:51.421Z,7.4
2023-01-12T00:14:35.038Z,6.2
2023-01-12T00:20:18.537Z,8.6
2023-01-12T00:26:01.445Z,6.7
2023-01-12T00:31:44.728Z,8.2
2023-01-12T00:37:27.520Z,6.3
2023-01-12T00:43:10.433Z,7.7
2023-01-12T00:48:53.266Z,9.6
2023-01-12T00:54:36.052Z,9.1
2023-01-12T01:00:19.081Z,7.9
2023-01-12T01:06:08.204Z,8.1
2023-01-12T01:11:51.103Z,9.7
2023-01-12T01:17:34.089Z,8
2023-01-12T01:23:17.019Z,8.7
2023-01-12T01:28:59.799Z,9.9
2023-01-12T01:34:43.009Z,8.3
2023-01-12T01:40:25.892Z,7.3
2023-01-12T01:46:12.303Z,8
2023-01-12T01:51:58.555Z,7.5
2023-01-12T01:57:44.487Z,9.8
2023-01-12T02:03:29.398Z,6.8
2023-01-12T02:09:14.103Z,8.1
2023-01-12T02:14:57.728Z,7.8
2023-01-12T02:20:45.165Z,7.1
2023-01-12T02:26:41.976Z,9.4
2023-01-12T02:32:29.786Z,9.1
2023-01-12T02:38:17.927Z,9.7
2023-01-12T02:44:01.054Z,8.7
2023-01-12T02:49:45.759Z,9.5
2023-01-12T02:55:29.685Z,8.2
2023-01-12T03:01:13.484Z,9.6
2023-01-12T03:07:07.386Z,9.1
2023-01-12T03:12:51.094Z,8.6
2023-01-12T03:18:36.827Z,11.1
2023-01-12T03:24:21.537Z,10.6
2023-01-12T03:30:07.072Z,7.2
2023-01-12T03:35:53.837Z,8.8
2023-01-12T03:41:40.575Z,10.4
2023-01-12T03:47:25.412Z,8.7
2023-01-12T03:53:10.095Z,9.4
2023-01-12T03:58:53.751Z,8
2023-01-12T04:04:36.888Z,7.9
2023-01-12T04:10:19.796Z,9.3
2023-01-12T04:16:03.575Z,7.8
2023-01-12T04:21:46.571Z,8.4
2023-01-12T04:27:29.435Z,7
2023-01-12T04:33:12.397Z,9.3
2023-01-12T04:38:55.156Z,9.7
2023-01-12T04:44:37.951Z,6.9
2023-01-12T04:50:20.902Z,8
2023-01-12T04:56:05.453Z,7.5
2023-01-12T05:01:48.680Z,9.7
2023-01-12T05:07:31.656Z,9
2023-01-12T05:13:15.619Z,5.9
2023-01-12T05:18:58.414Z,7.6
2023-01-12T05:24:41.310Z,10.8
2023-01-12T05:30:24.325Z,5.8
2023-01-12T05:36:10.648Z,8.8
2023-01-12T05:41:53.543Z,6.9
2023-01-12T05:47:36.429Z,7.6
2023-01-12T05:53:19.257Z,9.5
2023-01-12T05:59:03.457Z,9.6
2023-01-12T06:04:46.873Z,7
2023-01-12T06:10:30.009Z,6.4
2023-01-12T06:16:13.619Z,9.3
2023-01-12T06:21:56.585Z,5.9
2023-01-12T06:27:41.796Z,5.6
2023-01-12T06:33:24.846Z,7.1
2023-01-12T06:39:07.719Z,7
2023-01-12T06:44:51.674Z,7.4
2023-01-12T06:50:34.398Z,5.9
2023-01-12T06:56:17.044Z,5.6
2023-01-12T07:02:00.232Z,6.6
2023-01-12T07:07:43.525Z,8
2023-01-12T07:13:27.308Z,5.3
2023-01-12T07:19:10.465Z,6.4
2023-01-12T07:24:53.619Z,4.4
2023-01-12T07:30:38.591Z,5.6
2023-01-12T07:36:21.763Z,5.6
2023-01-12T07:42:04.833Z,3.7
2023-01-12T07:47:52.529Z,6.2
2023-01-12T07:53:35.509Z,5
2023-01-12T07:59:18.702Z,6.3
2023-01-12T08:05:01.613Z,5.4
2023-01-12T08:10:44.740Z,5.1
2023-01-12T08:16:32.362Z,5.4
2023-01-12T08:22:17.062Z,4.5
2023-01-12T08:28:01.845Z,5.5
2023-01-12T08:33:45.071Z,5.4
2023-01-12T08:39:28.115Z,5.5
2023-01-12T08:45:11.722Z,6.1
2023-01-12T08:50:54.944Z,5.5
2023-01-12T08:56:38.344Z,7
2023-01-12T09:02:21.480Z,7.2
2023-01-12T09:08:05.418Z,6.3
2023-01-12T09:13:48.242Z,5.2
2023-01-12T09:19:31.402Z,7.3
2023-01-12T09:25:14.797Z,3
2023-01-12T09:30:57.832Z,4.3
2023-01-12T09:36:41.231Z,6.1
2023-01-12T09:42:25.519Z,5.1
2023-01-12T09:48:12.629Z,5.3
2023-01-12T09:53:55.802Z,4.6
2023-01-12T09:59:43.068Z,5.6
2023-01-12T10:05:42.503Z,3.7
2023-01-12T10:11:28.348Z,6
2023-01-12T10:17:17.872Z,5.3
2023-01-12T10:23:03.491Z,5.3
2023-01-12T10:28:47.696Z,4.4
2023-01-12T10:34:36.515Z,4.7
2023-01-12T10:40:31.485Z,6.1
2023-01-12T10:46:19.150Z,4.1
2023-01-12T10:52:04.047Z,4.7
2023-01-12T10:57:49.399Z,5
2023-01-12T11:03:35.460Z,4.2
2023-01-12T11:09:25.320Z,3.7
2023-01-12T11:15:14.069Z,5.1
2023-01-12T11:20:59.259Z,2.5
2023-01-12T11:26:47.564Z,2.9
2023-01-12T11:32:40.489Z,2
2023-01-12T11:38:26.712Z,2.6
2023-01-12T11:44:14.869Z,3.3
2023-01-12T11:50:00.881Z,1.3
2023-01-12T11:55:51.864Z,2.6
2023-01-12T12:01:41.810Z,3.2
2023-01-12T12:07:31.226Z,2.8
2023-01-12T12:13:26.033Z,1.7
2023-01-12T12:19:21.342Z,1.7
2023-01-12T12:25:15.756Z,2
2023-01-12T12:31:13.002Z,1.8
2023-01-12T12:36:59.305Z,2
2023-01-12T12:42:54.464Z,1.6
2023-01-12T12:48:43.123Z,3
2023-01-12T12:54:27.303Z,2.7
2023-01-12T13:00:21.922Z,2.5
2023-01-12T13:06:12.861Z,2.3
2023-01-12T13:11:57.306Z,2
2023-01-12T13:17:47.159Z,3.8
2023-01-12T13:23:41.830Z,1.9
2023-01-12T13:29:37.110Z,2.8
2023-01-12T13:35:46.339Z,1.5
2023-01-12T13:41:31.633Z,2.6
2023-01-12T13:47:18.072Z,1.8
2023-01-12T13:53:05.073Z,2.8
2023-01-12T13:58:48.201Z,2.1
2023-01-12T14:04:38.302Z,3.2
2023-01-12T14:10:28.571Z,2.6
2023-01-12T14:16:12.682Z,1
2023-01-12T14:22:02.060Z,1.9
2023-01-12T14:27:49.775Z,3.4
2023-01-12T14:33:33.892Z,3.3
2023-01-12T14:39:18.509Z,2.9
2023-01-12T14:45:01.406Z,2.1
2023-01-12T14:50:49.179Z,3
2023-01-12T14:56:34.744Z,2.2
2023-01-12T15:02:27.945Z,1.4
2023-01-12T15:08:23.769Z,2.7
2023-01-12T15:14:07.544Z,1.4
2023-01-12T15:19:50.389Z,1.1
2023-01-12T15:25:33.218Z,1.5
2023-01-12T15:31:24.117Z,2.4
2023-01-12T15:37:06.945Z,1.9
2023-01-12T15:42:51.659Z,1.9
2023-01-12T15:48:35.862Z,1.5
2023-01-12T15:54:19.715Z,1.7
2023-01-12T16:00:02.702Z,1.4
2023-01-12T16:05:45.578Z,2.1
2023-01-12T16:11:28.291Z,3.1
2023-01-12T16:17:11.409Z,1.2
2023-01-12T16:22:54.509Z,3.7
2023-01-12T16:28:37.949Z,1.6
2023-01-12T16:34:21.101Z,2.8
2023-01-12T16:40:04.286Z,2.5
2023-01-12T16:45:47.230Z,2.6
2023-01-12T16:51:30.580Z,2.2
2023-01-12T16:57:14.104Z,2.1
2023-01-12T17:02:57.495Z,2.7
2023-01-12T17:08:41.945Z,2.9
2023-01-12T17:14:25.531Z,2.5
2023-01-12T17:20:09.977Z,2.2
2023-01-12T17:25:55.629Z,2.9
2023-01-12T17:31:39.627Z,2.4
2023-01-12T17:37:22.682Z,13.5
2023-01-12T17:43:08.126Z,8.8
2023-01-12T17:48:53.371Z,8.9
2023-01-12T17:54:36.572Z,10.1
2023-01-12T18:00:20.482Z,9.9
2023-01-12T18:06:25.702Z,7.4
2023-01-12T18:12:06.425Z,8.6
2023-01-12T18:17:49.333Z,6.7
2023-01-12T18:23:32.383Z,7
2023-01-12T18:29:15.377Z,5.9
2023-01-12T18:34:58.150Z,6.8
2023-01-12T18:40:41.065Z,4.6
2023-01-12T18:46:24.240Z,4.7
2023-01-12T18:52:07.404Z,5.1
2023-01-12T18:57:50.159Z,3.5
2023-01-12T19:03:33.058Z,4.5
2023-01-12T19:09:16.053Z,4.6
2023-01-12T19:14:58.783Z,5.5
2023-01-12T19:20:41.694Z,4.5
2023-01-12T19:26:24.506Z,3.8
2023-01-12T19:32:07.391Z,3.5
2023-01-12T19:37:52.774Z,2.8
2023-01-12T19:43:35.743Z,3.2
2023-01-12T19:49:18.755Z,4.4
2023-01-12T19:55:01.769Z,4.1
2023-01-12T20:00:45.476Z,3.9
2023-01-12T20:06:28.450Z,5.3
2023-01-12T20:12:11.391Z,3.3
2023-01-12T20:17:54.213Z,2.6
2023-01-12T20:23:36.968Z,3
2023-01-12T20:29:20.373Z,2.9
2023-01-12T20:35:04.562Z,2.4
2023-01-12T20:40:48.182Z,2.3
2023-01-12T20:46:31.045Z,2.2
2023-01-12T20:52:13.987Z,2.8
2023-01-12T20:57:56.850Z,2.4
2023-01-12T21:03:40.065Z,1.5
2023-01-12T21:09:22.750Z,1.2
2023-01-12T21:15:05.803Z,1.6
2023-01-12T21:20:48.879Z,1.8
2023-01-12T21:26:34.366Z,2.2
2023-01-12T21:32:18.577Z,1.8
2023-01-12T21:38:02.479Z,1.4
2023-01-12T21:43:45.748Z,1.9
2023-01-12T21:49:28.838Z,2.2
2023-01-12T21:55:12.067Z,2.7
2023-01-12T22:00:55.995Z,1.8
2023-01-12T22:06:39.423Z,1.8
2023-01-12T22:12:22.053Z,2.6
2023-01-12T22:18:04.862Z,1.8
2023-01-12T22:23:47.997Z,2.7
2023-01-12T22:29:31.030Z,1
2023-01-12T22:35:15.213Z,1.8
2023-01-12T22:40:57.971Z,3
2023-01-12T22:46:40.829Z,0.8
2023-01-12T22:52:23.651Z,1.5
2023-01-12T22:58:06.452Z,1.3
2023-01-12T23:03:49.165Z,2
2023-01-12T23:09:31.995Z,2.7
2023-01-12T23:15:14.966Z,1
2023-01-12T23:21:02.523Z,2.6
2023-01-12T23:26:46.283Z,0.9
2023-01-12T23:32:29.147Z,2.2
2023-01-12T23:38:15.616Z,0.6
2023-01-12T23:43:59.443Z,2.6
2023-01-12T23:49:42.256Z,1.5
2023-01-12T23:55:25.268Z,1.8
